createdAt,value
2014-07-15T00:00:22.140Z,22.13
2014-07-15T00:01:27.111Z,22.01
2014-07-15T00:02:31.801Z,22.04
2014-07-15T00:03:36.787Z,22.04
2014-07-15T00:04:41.476Z,22.01
2014-07-15T00:05:46.152Z,21.9
2014-07-15T00:06:50.842Z,21.83
2014-07-15T00:07:55.531Z,21.86
2014-07-15T00:09:00.518Z,21.85
2014-07-15T00:10:05.192Z,21.88
2014-07-15T00:11:10.178Z,21.83
2014-07-15T00:12:14.867Z,21.77
2014-07-15T00:13:19.557Z,21.87
2014-07-15T00:14:24.543Z,21.81
2014-07-15T00:15:29.530Z,21.82
2014-07-15T00:16:34.204Z,21.84
2014-07-15T00:17:38.893Z,21.81
2014-07-15T00:18:43.879Z,21.9
2014-07-15T00:19:48.866Z,21.88
2014-07-15T00:20:53.852Z,21.96
2014-07-15T00:21:58.526Z,21.93
2014-07-15T00:23:03.528Z,21.76
2014-07-15T00:24:08.218Z,21.88
2014-07-15T00:25:12.891Z,21.96
2014-07-15T00:26:17.581Z,22
2014-07-15T00:27:22.270Z,21.92
2014-07-15T00:28:27.257Z,21.95
2014-07-15T00:29:31.946Z,21.99
2014-07-15T00:30:36.636Z,21.8
2014-07-15T00:31:41.622Z,21.67
2014-07-15T00:32:46.312Z,21.67
2014-07-15T00:33:50.986Z,21.61
2014-07-15T00:34:55.675Z,21.64
2014-07-15T00:36:00.661Z,21.62
2014-07-15T00:37:05.337Z,21.72
2014-07-15T00:38:10.027Z,21.77
2014-07-15T00:39:15.013Z,21.72
2014-07-15T00:40:19.703Z,21.9
2014-07-15T00:41:24.377Z,21.79
2014-07-15T00:42:29.363Z,21.63
2014-07-15T00:43:34.349Z,21.46
2014-07-15T00:44:39.023Z,21.74
2014-07-15T00:45:43.713Z,21.86
2014-07-15T00:46:48.402Z,21.72
2014-07-15T00:47:53.076Z,21.83
2014-07-15T00:48:57.766Z,21.63
2014-07-15T00:50:02.455Z,21.62
2014-07-15T00:51:07.129Z,21.7
2014-07-15T00:52:11.818Z,21.74
2014-07-15T00:53:16.508Z,21.57
2014-07-15T00:54:20.510Z,21.72
2014-07-15T00:55:25.184Z,21.93
2014-07-15T00:56:29.873Z,21.84
2014-07-15T00:57:34.563Z,21.92
2014-07-15T00:58:39.252Z,21.88
2014-07-15T00:59:43.926Z,21.67
2014-07-15T01:00:48.616Z,21.53
2014-07-15T01:01:53.305Z,21.67
2014-07-15T01:02:57.995Z,21.51
2014-07-15T01:04:02.684Z,21.34
2014-07-15T01:05:07.671Z,21.44
2014-07-15T01:06:12.344Z,21.54
2014-07-15T01:07:17.036Z,21.65
2014-07-15T01:08:22.038Z,21.57
2014-07-15T01:09:27.009Z,21.29
2014-07-15T01:10:31.698Z,21.48
2014-07-15T01:11:36.686Z,21.46
2014-07-15T01:12:41.671Z,21.52
2014-07-15T01:13:46.360Z,21.65
2014-07-15T01:14:51.034Z,21.47
2014-07-15T01:15:55.724Z,21.36
2014-07-15T01:17:00.710Z,21.31
2014-07-15T01:18:05.384Z,21.09
2014-07-15T01:19:10.075Z,21.36
2014-07-15T01:20:14.764Z,21.52
2014-07-15T01:21:19.437Z,21.58
2014-07-15T01:22:24.127Z,21.48
2014-07-15T01:23:29.114Z,21.48
2014-07-15T01:24:33.802Z,21.49
2014-07-15T01:25:38.493Z,21.57
2014-07-15T01:26:43.487Z,21.28
2014-07-15T01:27:48.206Z,21.44
2014-07-15T01:28:52.952Z,21.38
2014-07-15T01:29:57.685Z,21.4
2014-07-15T01:31:02.407Z,21.42
2014-07-15T01:32:07.122Z,21.57
2014-07-15T01:33:11.829Z,21.47
2014-07-15T01:34:16.531Z,21.35
2014-07-15T01:35:21.221Z,21.22
2014-07-15T01:36:25.925Z,21.08
2014-07-15T01:37:30.623Z,21.11
2014-07-15T01:38:35.317Z,21.22
2014-07-15T01:39:40.012Z,21.2
2014-07-15T01:40:45.004Z,21.08
2014-07-15T01:41:49.698Z,21.08
2014-07-15T01:42:54.375Z,21.16
2014-07-15T01:43:59.066Z,21.26
2014-07-15T01:45:04.055Z,21.24
2014-07-15T01:46:09.046Z,21.32
2014-07-15T01:47:13.737Z,21.38
2014-07-15T01:48:18.412Z,21.23
2014-07-15T01:49:23.399Z,21.23
2014-07-15T01:50:28.089Z,21.28
2014-07-15T01:51:33.077Z,21.32
2014-07-15T01:52:37.750Z,21.28
2014-07-15T01:53:42.738Z,21.26
2014-07-15T01:54:47.427Z,21.46
2014-07-15T01:55:52.118Z,21.34
2014-07-15T01:56:57.104Z,21.36
2014-07-15T01:58:01.778Z,21.2
2014-07-15T01:59:06.764Z,20.96
2014-07-15T02:00:11.751Z,20.94
2014-07-15T02:01:16.440Z,20.98
2014-07-15T02:02:21.114Z,21.03
2014-07-15T02:03:25.818Z,20.92
2014-07-15T02:04:30.492Z,20.82
2014-07-15T02:05:35.182Z,20.87
2014-07-15T02:06:39.871Z,20.92
2014-07-15T02:07:44.170Z,20.86
2014-07-15T02:08:48.860Z,20.84
2014-07-15T02:09:52.863Z,20.75
2014-07-15T02:10:57.849Z,20.68
2014-07-15T02:12:02.538Z,20.96
2014-07-15T02:13:07.211Z,21.1
2014-07-15T02:14:12.214Z,21.2
2014-07-15T02:15:16.201Z,20.9
2014-07-15T02:16:20.203Z,21.1
2014-07-15T02:17:24.892Z,20.96
2014-07-15T02:18:29.582Z,20.62
2014-07-15T02:19:34.552Z,20.64
2014-07-15T02:20:39.241Z,20.68
2014-07-15T02:21:43.916Z,20.86
2014-07-15T02:22:48.605Z,21.09
2014-07-15T02:23:53.296Z,21.04
2014-07-15T02:24:57.971Z,21.12
2014-07-15T02:26:02.659Z,21.34
2014-07-15T02:27:07.350Z,21.07
2014-07-15T02:28:12.039Z,20.94
2014-07-15T02:29:17.010Z,20.96
2014-07-15T02:30:21.698Z,20.85
2014-07-15T02:31:26.389Z,20.84
2014-07-15T02:32:31.360Z,21.05
2014-07-15T02:33:36.049Z,20.94
2014-07-15T02:34:41.036Z,21.11
2014-07-15T02:35:45.725Z,21.04
2014-07-15T02:36:50.696Z,21.12
2014-07-15T02:37:55.979Z,21.13
2014-07-15T02:39:00.669Z,20.74
2014-07-15T02:40:05.655Z,20.65
2014-07-15T02:41:10.329Z,20.52
2014-07-15T02:42:15.018Z,20.55
2014-07-15T02:43:19.708Z,20.7
2014-07-15T02:44:24.382Z,20.87
2014-07-15T02:45:29.368Z,20.69
2014-07-15T02:46:34.058Z,20.78
2014-07-15T02:47:39.341Z,20.7
2014-07-15T02:48:44.327Z,20.65
2014-07-15T02:49:49.017Z,20.56
2014-07-15T02:50:53.706Z,20.55
2014-07-15T02:51:58.693Z,20.43
2014-07-15T02:53:03.382Z,20.45
2014-07-15T02:54:08.056Z,20.48
2014-07-15T02:55:13.042Z,20.54
2014-07-15T02:56:17.734Z,20.69
2014-07-15T02:57:22.423Z,20.84
2014-07-15T02:58:27.707Z,20.93
2014-07-15T02:59:32.677Z,20.77
2014-07-15T03:00:37.368Z,20.77
2014-07-15T03:01:42.354Z,20.87
2014-07-15T03:02:47.340Z,20.65
2014-07-15T03:03:52.326Z,20.54
2014-07-15T03:04:57.015Z,20.63
2014-07-15T03:06:01.690Z,20.86
2014-07-15T03:07:06.677Z,20.87
2014-07-15T03:08:11.366Z,20.77
2014-07-15T03:09:16.040Z,20.78
2014-07-15T03:10:21.025Z,20.77
2014-07-15T03:11:25.716Z,20.53
2014-07-15T03:12:30.983Z,20.65
2014-07-15T03:13:35.688Z,20.45
2014-07-15T03:14:40.377Z,20.39
2014-07-15T03:15:45.052Z,20.36
2014-07-15T03:16:50.038Z,20.66
2014-07-15T03:17:54.728Z,20.71
2014-07-15T03:18:59.416Z,20.68
2014-07-15T03:20:04.090Z,20.57
2014-07-15T03:21:08.781Z,20.62
2014-07-15T03:22:13.470Z,20.46
2014-07-15T03:23:18.159Z,20.44
2014-07-15T03:24:23.442Z,20.35
2014-07-15T03:25:28.428Z,20.57
2014-07-15T03:26:33.102Z,20.48
2014-07-15T03:27:37.793Z,20.56
2014-07-15T03:28:42.483Z,20.44
2014-07-15T03:29:47.174Z,20.59
2014-07-15T03:30:51.175Z,20.3
2014-07-15T03:31:56.161Z,20.06
2014-07-15T03:33:00.835Z,20.33
2014-07-15T03:34:05.525Z,20.52
2014-07-15T03:35:10.198Z,20.29
2014-07-15T03:36:15.185Z,20.34
2014-07-15T03:37:19.874Z,20.27
2014-07-15T03:38:24.861Z,20.25
2014-07-15T03:39:30.128Z,20.14
2014-07-15T03:40:34.819Z,20.23
2014-07-15T03:41:39.508Z,20.1
2014-07-15T03:42:44.479Z,20.32
2014-07-15T03:43:49.168Z,20.46
2014-07-15T03:44:53.857Z,20.26
2014-07-15T03:45:58.531Z,20.4
2014-07-15T03:47:03.220Z,20.23
2014-07-15T03:48:07.894Z,20.39
2014-07-15T03:49:12.882Z,20.11
2014-07-15T03:50:17.570Z,20.18
2014-07-15T03:51:22.260Z,20.21
2014-07-15T03:52:26.949Z,20.12
2014-07-15T03:53:31.936Z,20.15
2014-07-15T03:54:36.625Z,19.99
2014-07-15T03:55:41.612Z,20.19
2014-07-15T03:56:46.286Z,20.41
2014-07-15T03:57:50.976Z,20.31
2014-07-15T03:58:55.962Z,20.63
2014-07-15T04:00:00.653Z,20.6
2014-07-15T04:01:05.342Z,20.38
2014-07-15T04:02:10.017Z,20.38
2014-07-15T04:03:15.002Z,20.18
2014-07-15T04:04:19.693Z,20.11
2014-07-15T04:05:24.367Z,20.33
2014-07-15T04:06:29.352Z,20.35
2014-07-15T04:07:34.043Z,20.12
2014-07-15T04:08:39.012Z,20.11
2014-07-15T04:09:43.702Z,20.09
2014-07-15T04:10:48.688Z,20.29
2014-07-15T04:11:53.675Z,20.28
2014-07-15T04:12:58.661Z,20.22
2014-07-15T04:14:03.336Z,20.41
2014-07-15T04:15:08.322Z,20.28
2014-07-15T04:16:13.308Z,20.26
2014-07-15T04:17:17.982Z,20.15
2014-07-15T04:18:22.671Z,20.21
2014-07-15T04:19:27.361Z,20.02
2014-07-15T04:20:32.034Z,20.23
2014-07-15T04:21:37.022Z,20.03
2014-07-15T04:22:41.710Z,20.24
2014-07-15T04:23:46.385Z,20.58
2014-07-15T04:24:51.074Z,20.42
2014-07-15T04:25:55.764Z,20.58
2014-07-15T04:27:00.437Z,20.79
2014-07-15T04:28:05.127Z,20.62
2014-07-15T04:29:09.819Z,20.58
2014-07-15T04:30:14.508Z,20.58
2014-07-15T04:31:19.197Z,20.64
2014-07-15T04:32:23.887Z,20.26
2014-07-15T04:33:28.874Z,20.51
2014-07-15T04:34:33.860Z,20.76
2014-07-15T04:35:38.550Z,20.59
2014-07-15T04:36:43.224Z,20.55
2014-07-15T04:37:48.210Z,20.49
2014-07-15T04:38:52.900Z,20.52
2014-07-15T04:39:57.589Z,20.5
2014-07-15T04:41:01.591Z,20.64
2014-07-15T04:42:06.281Z,20.49
2014-07-15T04:43:11.267Z,20.65
2014-07-15T04:44:15.940Z,20.71
2014-07-15T04:45:20.927Z,20.82
2014-07-15T04:46:25.616Z,20.78
2014-07-15T04:47:30.291Z,20.53
2014-07-15T04:48:35.277Z,20.3
2014-07-15T04:49:40.248Z,20.26
2014-07-15T04:50:44.937Z,20.48
2014-07-15T04:51:49.627Z,20.5
2014-07-15T04:52:54.613Z,20.26
2014-07-15T04:53:59.287Z,20.29
2014-07-15T04:55:03.976Z,20.34
2014-07-15T04:56:08.666Z,20.16
2014-07-15T04:57:13.341Z,20.3
2014-07-15T04:58:18.623Z,20.11
2014-07-15T04:59:23.313Z,20.3
2014-07-15T05:00:28.596Z,20.33
2014-07-15T05:01:33.270Z,20.36
2014-07-15T05:02:37.272Z,20.9
2014-07-15T05:03:41.961Z,21.2
2014-07-15T05:04:46.635Z,21.2
2014-07-15T05:05:51.623Z,21.41
2014-07-15T05:06:56.329Z,21.64
2014-07-15T05:08:01.002Z,21.52
2014-07-15T05:09:05.989Z,21.54
2014-07-15T05:10:10.678Z,21.7
2014-07-15T05:11:15.368Z,21.6
2014-07-15T05:12:20.073Z,21.81
2014-07-15T05:13:24.747Z,21.64
2014-07-15T05:14:29.435Z,21.61
2014-07-15T05:15:34.125Z,21.99
2014-07-15T05:16:38.815Z,22.09
2014-07-15T05:17:43.489Z,22.09
2014-07-15T05:18:48.772Z,22.1
2014-07-15T05:19:53.462Z,21.77
2014-07-15T05:20:58.745Z,22.22
2014-07-15T05:22:03.732Z,22.74
2014-07-15T05:23:08.405Z,22.82
2014-07-15T05:24:13.392Z,22.61
2014-07-15T05:25:18.081Z,22.55
2014-07-15T05:26:22.771Z,22.76
2014-07-15T05:27:27.742Z,22.64
2014-07-15T05:28:32.431Z,22.38
2014-07-15T05:29:37.121Z,22.27
2014-07-15T05:30:41.810Z,22.17
2014-07-15T05:31:46.499Z,22.66
2014-07-15T05:32:51.486Z,23.09
2014-07-15T05:33:56.160Z,23.2
2014-07-15T05:35:00.849Z,23.32
2014-07-15T05:36:05.539Z,23.32
2014-07-15T05:37:10.527Z,23.13
2014-07-15T05:38:15.514Z,23
2014-07-15T05:39:20.187Z,23.04
2014-07-15T05:40:24.877Z,22.66
2014-07-15T05:41:29.879Z,22.59
2014-07-15T05:42:34.865Z,22.93
2014-07-15T05:43:39.852Z,23.01
2014-07-15T05:44:44.541Z,22.9
2014-07-15T05:45:49.231Z,22.72
2014-07-15T05:46:54.217Z,22.92
2014-07-15T05:47:59.203Z,23.14
2014-07-15T05:49:03.877Z,22.81
2014-07-15T05:50:08.568Z,22.92
2014-07-15T05:51:13.257Z,23.02
2014-07-15T05:52:17.947Z,23.24
2014-07-15T05:53:22.933Z,23.37
2014-07-15T05:54:27.622Z,23.28
2014-07-15T05:55:31.625Z,23.29
2014-07-15T05:56:36.299Z,23.77
2014-07-15T05:57:40.987Z,24.01
2014-07-15T05:58:45.677Z,24.13
2014-07-15T05:59:50.350Z,23.85
2014-07-15T06:00:55.041Z,24.03
2014-07-15T06:02:00.027Z,24.1
2014-07-15T06:03:05.013Z,24.34
2014-07-15T06:04:09.703Z,24.4
2014-07-15T06:05:14.986Z,24.5
2014-07-15T06:06:19.676Z,25.1
2014-07-15T06:07:24.350Z,26.87
2014-07-15T06:08:29.039Z,28.71
2014-07-15T06:09:33.728Z,30.47
2014-07-15T06:10:38.418Z,31.86
2014-07-15T06:11:43.107Z,32.68
2014-07-15T06:12:47.796Z,33.21
2014-07-15T06:13:53.082Z,33.75
2014-07-15T06:14:58.069Z,33.96
2014-07-15T06:16:03.070Z,34.11
2014-07-15T06:17:07.759Z,34.19
2014-07-15T06:18:12.746Z,35.01
2014-07-15T06:19:17.452Z,35.38
2014-07-15T06:20:22.141Z,36.07
2014-07-15T06:21:26.830Z,36.08
2014-07-15T06:22:31.535Z,36.67
2014-07-15T06:23:36.225Z,37.24
2014-07-15T06:24:40.914Z,37.54
2014-07-15T06:25:45.604Z,37.75
2014-07-15T06:26:50.309Z,38.17
2014-07-15T06:27:54.999Z,38.14
2014-07-15T06:28:59.689Z,38.7
2014-07-15T06:30:03.705Z,39.05
2014-07-15T06:31:08.395Z,38.3
2014-07-15T06:32:13.381Z,38.56
2014-07-15T06:33:18.087Z,38.92
2014-07-15T06:34:22.776Z,38.71
2014-07-15T06:35:27.465Z,39.49
2014-07-15T06:36:32.170Z,40.15
2014-07-15T06:37:37.157Z,39.97
2014-07-15T06:38:42.159Z,40.15
2014-07-15T06:39:46.850Z,39.29
2014-07-15T06:40:51.540Z,39.01
2014-07-15T06:41:56.246Z,38.81
2014-07-15T06:43:00.935Z,39.02
2014-07-15T06:44:05.641Z,36.53
2014-07-15T06:45:10.329Z,33.84
2014-07-15T06:46:15.331Z,32.54
2014-07-15T06:47:20.053Z,31.23
2014-07-15T06:48:24.741Z,30.53
2014-07-15T06:49:29.728Z,30.13
2014-07-15T06:50:34.434Z,29.78
2014-07-15T06:51:39.122Z,28.81
2014-07-15T06:52:43.813Z,28.27
2014-07-15T06:53:48.814Z,27.81
2014-07-15T06:54:53.503Z,27.92
2014-07-15T06:55:58.194Z,27.49
2014-07-15T06:57:02.882Z,27.1
2014-07-15T06:58:07.572Z,27.44
2014-07-15T06:59:12.261Z,26.92
2014-07-15T07:00:16.951Z,26.14
2014-07-15T07:01:21.641Z,26.12
2014-07-15T07:02:26.330Z,26.21
2014-07-15T07:03:31.019Z,26.34
2014-07-15T07:04:35.710Z,26.46
2014-07-15T07:05:40.398Z,26.42
2014-07-15T07:06:45.088Z,26.38
2014-07-15T07:07:50.074Z,26.52
2014-07-15T07:08:55.061Z,26.25
2014-07-15T07:09:59.753Z,26.13
2014-07-15T07:11:04.442Z,26.37
2014-07-15T07:12:09.131Z,26.54
2014-07-15T07:13:13.821Z,26.62
2014-07-15T07:14:18.510Z,26.81
2014-07-15T07:15:23.200Z,26.77
2014-07-15T07:16:27.889Z,26.33
2014-07-15T07:17:32.875Z,26.45
2014-07-15T07:18:38.159Z,26.64
2014-07-15T07:19:43.145Z,26.65
2014-07-15T07:20:48.131Z,26.36
2014-07-15T07:21:53.118Z,26.58
2014-07-15T07:22:57.807Z,26.04
2014-07-15T07:24:02.497Z,26.45
2014-07-15T07:25:07.186Z,25.65
2014-07-15T07:26:12.173Z,25.54
2014-07-15T07:27:17.143Z,25.56
2014-07-15T07:28:22.145Z,25.61
2014-07-15T07:29:26.835Z,26.23
2014-07-15T07:30:31.821Z,26.6
2014-07-15T07:31:36.511Z,26.47
2014-07-15T07:32:41.513Z,26.71
2014-07-15T07:33:46.500Z,26.48
2014-07-15T07:34:51.486Z,26.66
2014-07-15T07:35:56.474Z,26.86
2014-07-15T07:37:01.179Z,26.9
2014-07-15T07:38:05.869Z,26.99
2014-07-15T07:39:10.558Z,27.61
2014-07-15T07:40:15.560Z,28.2
2014-07-15T07:41:20.250Z,27.86
2014-07-15T07:42:24.939Z,27.82
2014-07-15T07:43:30.222Z,27.57
2014-07-15T07:44:34.225Z,27.39
2014-07-15T07:45:38.914Z,27.53
2014-07-15T07:46:43.603Z,27.18
2014-07-15T07:47:48.293Z,27.56
2014-07-15T07:48:53.279Z,27.23
2014-07-15T07:49:57.969Z,27.39
2014-07-15T07:51:02.658Z,27.55
2014-07-15T07:52:07.348Z,27.4
2014-07-15T07:53:12.037Z,27.47
2014-07-15T07:54:17.024Z,27.53
2014-07-15T07:55:21.713Z,27.55
2014-07-15T07:56:26.699Z,27.36
2014-07-15T07:57:31.389Z,26.98
2014-07-15T07:58:36.375Z,27.26
2014-07-15T07:59:41.362Z,27.33
2014-07-15T08:00:46.348Z,27.1
2014-07-15T08:01:51.038Z,27.4
2014-07-15T08:02:55.728Z,27.15
2014-07-15T08:04:00.417Z,27.05
2014-07-15T08:05:05.122Z,27.32
2014-07-15T08:06:09.827Z,27.36
2014-07-15T08:07:14.518Z,27.09
2014-07-15T08:08:19.208Z,27.27
2014-07-15T08:09:23.210Z,27.06
2014-07-15T08:10:27.899Z,27.34
2014-07-15T08:11:32.901Z,27.32
2014-07-15T08:12:37.591Z,27.26
2014-07-15T08:13:42.280Z,27.47
2014-07-15T08:14:46.970Z,27.61
2014-07-15T08:15:51.956Z,27.44
2014-07-15T08:16:55.958Z,27.38
2014-07-15T08:18:00.648Z,26.81
2014-07-15T08:19:05.635Z,27.17
2014-07-15T08:20:10.324Z,27.23
2014-07-15T08:21:15.013Z,27.02
2014-07-15T08:22:19.703Z,27.09
2014-07-15T08:23:24.392Z,27.12
2014-07-15T08:24:29.082Z,27.46
2014-07-15T08:25:34.068Z,27.49
2014-07-15T08:26:38.758Z,27.17
2014-07-15T08:27:43.447Z,27.5
2014-07-15T08:28:48.137Z,27.13
2014-07-15T08:29:52.826Z,27.06
2014-07-15T08:30:57.516Z,27.13
2014-07-15T08:32:02.205Z,27.14
2014-07-15T08:33:06.895Z,27.07
2014-07-15T08:34:11.568Z,26.59
2014-07-15T08:35:16.571Z,26.81
2014-07-15T08:36:21.557Z,26.78
2014-07-15T08:37:26.543Z,27.04
2014-07-15T08:38:31.233Z,26.74
2014-07-15T08:39:36.516Z,26.96
2014-07-15T08:40:41.205Z,26.86
2014-07-15T08:41:46.208Z,26.67
2014-07-15T08:42:50.897Z,26.86
2014-07-15T08:43:55.588Z,27.08
2014-07-15T08:45:00.576Z,27.02
2014-07-15T08:46:05.264Z,27.17
2014-07-15T08:47:09.955Z,27.13
2014-07-15T08:48:14.660Z,27.4
2014-07-15T08:49:19.348Z,27.25
2014-07-15T08:50:24.039Z,27.32
2014-07-15T08:51:29.024Z,27.18
2014-07-15T08:52:33.715Z,26.93
2014-07-15T08:53:38.403Z,27.09
2014-07-15T08:54:43.390Z,27.14
2014-07-15T08:55:48.079Z,27.28
2014-07-15T08:56:52.770Z,27.43
2014-07-15T08:57:57.459Z,27.44
2014-07-15T08:59:02.149Z,27.38
2014-07-15T09:00:06.838Z,27.19
2014-07-15T09:01:12.121Z,27.46
2014-07-15T09:02:17.108Z,27.33
2014-07-15T09:03:21.797Z,27.35
2014-07-15T09:04:26.487Z,27.54
2014-07-15T09:05:31.473Z,26.94
2014-07-15T09:06:36.163Z,26.77
2014-07-15T09:07:40.852Z,27.2
2014-07-15T09:08:45.838Z,27.48
2014-07-15T09:09:50.528Z,27.54
2014-07-15T09:10:55.514Z,27.84
2014-07-15T09:12:00.205Z,27.6
2014-07-15T09:13:05.190Z,27.39
2014-07-15T09:14:09.881Z,27.36
2014-07-15T09:15:14.569Z,27.37
2014-07-15T09:16:19.260Z,26.86
2014-07-15T09:17:24.245Z,26.93
2014-07-15T09:18:28.935Z,26.79
2014-07-15T09:19:33.624Z,26.34
2014-07-15T09:20:38.314Z,26.43
2014-07-15T09:21:43.003Z,26.57
2014-07-15T09:22:47.990Z,26.51
2014-07-15T09:23:52.680Z,26.31
2014-07-15T09:24:57.368Z,26.63
2014-07-15T09:26:02.060Z,27
2014-07-15T09:27:07.047Z,26.7
2014-07-15T09:28:11.736Z,26.92
2014-07-15T09:29:16.722Z,27.04
2014-07-15T09:30:21.413Z,27.36
2014-07-15T09:31:26.101Z,27.35
2014-07-15T09:32:30.791Z,27.28
2014-07-15T09:33:35.480Z,27.5
2014-07-15T09:34:40.154Z,27.48
2014-07-15T09:35:44.845Z,27.34
2014-07-15T09:36:49.799Z,27.15
2014-07-15T09:37:54.489Z,27.5
2014-07-15T09:38:59.178Z,27.6
2014-07-15T09:40:03.853Z,27.23
2014-07-15T09:41:08.558Z,27.07
2014-07-15T09:42:13.247Z,27.24
2014-07-15T09:43:17.936Z,27.42
2014-07-15T09:44:22.922Z,27.48
2014-07-15T09:45:27.612Z,27.79
2014-07-15T09:46:32.318Z,27.72
2014-07-15T09:47:37.007Z,27.72
2014-07-15T09:48:41.696Z,27.64
2014-07-15T09:49:46.401Z,27.7
2014-07-15T09:50:51.387Z,27.88
2014-07-15T09:51:56.093Z,28.07
2014-07-15T09:53:01.095Z,28.36
2014-07-15T09:54:05.785Z,28.38
2014-07-15T09:55:10.771Z,28.08
2014-07-15T09:56:15.758Z,28.24
2014-07-15T09:57:20.744Z,28.33
2014-07-15T09:58:25.433Z,28.42
2014-07-15T09:59:30.123Z,28.23
2014-07-15T10:00:35.109Z,28.42
2014-07-15T10:01:40.096Z,28.48
2014-07-15T10:02:44.785Z,28.39
2014-07-15T10:03:49.475Z,28.79
2014-07-15T10:04:54.166Z,28.39
2014-07-15T10:05:58.856Z,28.27
2014-07-15T10:07:03.842Z,28.33
2014-07-15T10:08:08.532Z,28.15
2014-07-15T10:09:13.237Z,28.43
2014-07-15T10:10:17.926Z,28.6
2014-07-15T10:11:22.616Z,28.78
2014-07-15T10:12:27.305Z,28.64
2014-07-15T10:13:31.995Z,28.08
2014-07-15T10:14:37.294Z,28.48
2014-07-15T10:15:41.983Z,28.88
2014-07-15T10:16:46.673Z,28.89
2014-07-15T10:17:51.362Z,28.78
2014-07-15T10:18:56.052Z,28.77
2014-07-15T10:20:00.741Z,28.38
2014-07-15T10:21:05.431Z,28.36
2014-07-15T10:22:10.120Z,28.21
2014-07-15T10:23:15.122Z,28.22
2014-07-15T10:24:19.812Z,28.14
2014-07-15T10:25:24.501Z,27.93
2014-07-15T10:26:29.191Z,27.93
2014-07-15T10:27:33.881Z,27.88
2014-07-15T10:28:38.571Z,27.78
2014-07-15T10:29:43.259Z,27.7
2014-07-15T10:30:48.246Z,27.65
2014-07-15T10:31:52.936Z,27.75
2014-07-15T10:32:57.925Z,27.76
2014-07-15T10:34:02.657Z,27.61
2014-07-15T10:35:07.385Z,27.71
2014-07-15T10:36:12.118Z,27.51
2014-07-15T10:37:16.846Z,27.69
2014-07-15T10:38:21.571Z,27.8
2014-07-15T10:39:26.276Z,28.02
2014-07-15T10:40:31.574Z,28.2
2014-07-15T10:41:36.575Z,28.34
2014-07-15T10:42:41.278Z,28.54
2014-07-15T10:43:45.978Z,28.59
2014-07-15T10:44:50.673Z,28.17
2014-07-15T10:45:55.665Z,27.93
2014-07-15T10:47:00.359Z,28.31
2014-07-15T10:48:05.351Z,28.62
2014-07-15T10:49:10.047Z,28.76
2014-07-15T10:50:15.036Z,29.12
2014-07-15T10:51:19.726Z,29.22
2014-07-15T10:52:24.731Z,29.49
2014-07-15T10:53:29.421Z,29.52
2014-07-15T10:54:34.111Z,29.63
2014-07-15T10:55:38.801Z,29.87
2014-07-15T10:56:43.490Z,29.75
2014-07-15T10:57:48.195Z,29.8
2014-07-15T10:58:53.184Z,29.45
2014-07-15T10:59:58.169Z,29.26
2014-07-15T11:01:03.172Z,29.34
2014-07-15T11:02:08.159Z,29.2
2014-07-15T11:03:12.849Z,29.05
2014-07-15T11:04:17.538Z,28.8
2014-07-15T11:05:22.525Z,28.42
2014-07-15T11:06:27.214Z,28.24
2014-07-15T11:07:31.919Z,28.21
2014-07-15T11:08:36.609Z,28.27
2014-07-15T11:09:41.298Z,28.28
2014-07-15T11:10:45.988Z,28.2
2014-07-15T11:11:50.677Z,27.86
2014-07-15T11:12:55.664Z,27.43
2014-07-15T11:14:00.666Z,27.74
2014-07-15T11:15:05.355Z,27.46
2014-07-15T11:16:10.045Z,27.45
2014-07-15T11:17:14.734Z,27.51
2014-07-15T11:18:19.408Z,27.56
2014-07-15T11:19:24.113Z,27.34
2014-07-15T11:20:28.115Z,27.47
2014-07-15T11:21:32.805Z,27.4
2014-07-15T11:22:37.494Z,27.44
2014-07-15T11:23:42.184Z,27.16
2014-07-15T11:24:46.873Z,27.37
2014-07-15T11:25:51.563Z,27.42
2014-07-15T11:26:56.549Z,27.12
2014-07-15T11:28:01.239Z,27.23
2014-07-15T11:29:05.928Z,27.2
2014-07-15T11:30:10.633Z,27.33
2014-07-15T11:31:15.325Z,27.63
2014-07-15T11:32:20.014Z,27.73
2014-07-15T11:33:24.704Z,27.92
2014-07-15T11:34:29.409Z,28.07
2014-07-15T11:35:34.380Z,28.14
2014-07-15T11:36:38.694Z,28.28
2014-07-15T11:37:43.384Z,28.39
2014-07-15T11:38:48.370Z,28.4
2014-07-15T11:39:53.059Z,28.35
2014-07-15T11:40:57.749Z,28.19
2014-07-15T11:42:02.735Z,28.12
2014-07-15T11:43:07.722Z,28.11
2014-07-15T11:44:12.708Z,28.2
2014-07-15T11:45:17.398Z,28.16
2014-07-15T11:46:22.087Z,28.21
2014-07-15T11:47:27.074Z,28.11
2014-07-15T11:48:31.763Z,28.38
2014-07-15T11:49:36.452Z,28.58
2014-07-15T11:50:40.454Z,28.57
2014-07-15T11:51:45.144Z,28.59
2014-07-15T11:52:50.115Z,28.74
2014-07-15T11:53:55.117Z,28.89
2014-07-15T11:55:00.103Z,28.81
2014-07-15T11:56:04.793Z,28.98
2014-07-15T11:57:09.498Z,29.02
2014-07-15T11:58:14.187Z,29.09
2014-07-15T11:59:18.877Z,28.96
2014-07-15T12:00:23.881Z,28.76
2014-07-15T12:01:28.570Z,28.69
2014-07-15T12:02:33.557Z,28.54
2014-07-15T12:03:38.246Z,29.16
2014-07-15T12:04:43.248Z,29.1
2014-07-15T12:05:47.938Z,29.26
2014-07-15T12:06:52.627Z,29.3
2014-07-15T12:07:57.317Z,28.62
2014-07-15T12:09:02.006Z,28.49
2014-07-15T12:10:06.696Z,28.57
2014-07-15T12:11:11.385Z,28.77
2014-07-15T12:12:16.075Z,29.17
2014-07-15T12:13:20.764Z,29.24
2014-07-15T12:14:25.454Z,29.15
2014-07-15T12:15:30.143Z,29.14
2014-07-15T12:16:34.833Z,28.81
2014-07-15T12:17:39.538Z,28.61
2014-07-15T12:18:44.524Z,28.75
2014-07-15T12:19:49.510Z,28.95
2014-07-15T12:20:54.200Z,28.92
2014-07-15T12:21:58.905Z,28.64
2014-07-15T12:23:03.596Z,28.77
2014-07-15T12:24:08.284Z,28.75
2014-07-15T12:25:12.975Z,28.64
2014-07-15T12:26:17.663Z,28.74
2014-07-15T12:27:22.353Z,28.46
2014-07-15T12:28:27.340Z,28.54
2014-07-15T12:29:32.029Z,28.52
2014-07-15T12:30:36.718Z,28.56
2014-07-15T12:31:41.407Z,28.75
2014-07-15T12:32:46.097Z,28.32
2014-07-15T12:33:50.786Z,27.5
2014-07-15T12:34:55.479Z,27.3
2014-07-15T12:36:00.480Z,28.07
2014-07-15T12:37:04.779Z,28.53
2014-07-15T12:38:09.766Z,28.72
2014-07-15T12:39:14.752Z,29.05
2014-07-15T12:40:19.738Z,29
2014-07-15T12:41:24.724Z,29.16
2014-07-15T12:42:29.414Z,29.06
2014-07-15T12:43:34.103Z,28.79
2014-07-15T12:44:38.808Z,28.76
2014-07-15T12:45:43.795Z,28.78
2014-07-15T12:46:48.484Z,28.72
2014-07-15T12:47:53.471Z,28.7
2014-07-15T12:48:58.161Z,28.6
2014-07-15T12:50:02.851Z,28.4
2014-07-15T12:51:07.539Z,28.12
2014-07-15T12:52:12.229Z,28.01
2014-07-15T12:53:16.919Z,28.23
2014-07-15T12:54:21.608Z,28.34
2014-07-15T12:55:26.298Z,28.16
2014-07-15T12:56:30.987Z,28.13
2014-07-15T12:57:35.692Z,28.13
2014-07-15T12:58:40.397Z,27.99
2014-07-15T12:59:45.383Z,28.02
2014-07-15T13:00:50.073Z,28.14
2014-07-15T13:01:55.044Z,27.95
2014-07-15T13:03:00.047Z,28.01
2014-07-15T13:04:04.736Z,27.64
2014-07-15T13:05:09.721Z,27.53
2014-07-15T13:06:14.412Z,27.82
2014-07-15T13:07:18.414Z,27.83
2014-07-15T13:08:23.135Z,27.57
2014-07-15T13:09:28.121Z,27.85
2014-07-15T13:10:32.828Z,27.87
2014-07-15T13:11:37.815Z,27.96
2014-07-15T13:12:42.800Z,28.11
2014-07-15T13:13:47.490Z,27.98
2014-07-15T13:14:52.195Z,28.04
2014-07-15T13:15:56.884Z,28.09
2014-07-15T13:17:01.871Z,28.22
2014-07-15T13:18:06.561Z,28.14
2014-07-15T13:19:11.250Z,28.16
2014-07-15T13:20:15.940Z,28.38
2014-07-15T13:21:20.629Z,28.3
2014-07-15T13:22:25.616Z,28.34
2014-07-15T13:23:30.321Z,28.49
2014-07-15T13:24:35.010Z,28.61
2014-07-15T13:25:39.700Z,28.26
2014-07-15T13:26:44.389Z,28.24
2014-07-15T13:27:49.376Z,28.51
2014-07-15T13:28:54.362Z,28.83
2014-07-15T13:29:59.052Z,28.57
2014-07-15T13:31:04.038Z,28.46
2014-07-15T13:32:08.728Z,28.7
2014-07-15T13:33:13.714Z,28.61
2014-07-15T13:34:18.403Z,28.86
2014-07-15T13:35:23.390Z,29.15
2014-07-15T13:36:28.375Z,29.27
2014-07-15T13:37:33.066Z,29.34
2014-07-15T13:38:37.755Z,29.41
2014-07-15T13:39:42.445Z,29.49
2014-07-15T13:40:47.134Z,29.16
2014-07-15T13:41:51.824Z,28.71
2014-07-15T13:42:56.513Z,28.58
2014-07-15T13:44:01.203Z,28.49
2014-07-15T13:45:06.189Z,28.66
2014-07-15T13:46:11.193Z,28.82
2014-07-15T13:47:16.179Z,28.77
2014-07-15T13:48:20.869Z,28.97
2014-07-15T13:49:25.558Z,28.81
2014-07-15T13:50:30.545Z,28.99
2014-07-15T13:51:35.234Z,28.98
2014-07-15T13:52:39.924Z,28.78
2014-07-15T13:53:44.613Z,28.88
2014-07-15T13:54:49.303Z,28.7
2014-07-15T13:55:53.992Z,28.72
2014-07-15T13:56:58.682Z,28.46